Time;durP1;ratioP1;P1;durP2;ratioP2;P2;SDS_P1;SDS_P2;PMS_P1;PMS_P2;Temp;Humidity;BMP_temperature;BMP_pressure;BME280_temperature;BME280_humidity;BME280_pressure;Samples;Min_cycle;Max_cycle;Signal;HPM_P1;HPM_P2
2023/06/17 00:12:36;;;;;;;23.30;21.10;;;16.40;99.90;;;;;;5558804;25;20216;-83
2023/06/17 00:52:39;;;;;;;23.80;21.40;;;15.80;99.90;;;;;;5820619;23;20172;-79
2023/06/17 01:28:40;;;;;;;15.53;14.03;;;15.40;99.90;;;;;;5704886;24;20235;-83
2023/06/17 01:54:13;;;;;;;13.00;11.80;;;15.30;99.90;;;;;;5797270;24;20221;-80
2023/06/17 02:29:09;;;;;;;11.87;10.77;;;15.10;99.90;;;;;;5858813;23;20502;-83
2023/06/17 02:59:33;;;;;;;8.63;7.83;;;15.20;99.90;;;;;;5735083;24;20448;-79
2023/06/17 03:25:30;;;;;;;8.03;7.33;;;15.30;99.90;;;;;;5609424;25;20204;-82
2023/06/17 03:45:25;;;;;;;9.63;8.73;;;15.20;99.90;;;;;;5685420;24;20344;-79
2023/06/17 04:06:06;;;;;;;9.80;8.90;;;15.30;99.90;;;;;;5846176;24;20215;-85
2023/06/17 04:56:38;;;;;;;12.87;11.67;;;16.60;99.90;;;;;;5709502;24;20223;-83
2023/06/17 05:26:57;;;;;;;13.63;12.23;;;17.50;99.90;;;;;;5807225;24;20273;-81
2023/06/17 07:18:38;;;;;;;9.07;8.27;;;19.80;93.00;;;;;;5627400;24;20335;-83
2023/06/17 07:38:59;;;;;;;9.10;8.30;;;20.60;91.90;;;;;;5626475;24;20282;-82
2023/06/17 08:08:45;;;;;;;9.52;8.63;;;21.40;85.60;;;;;;5877195;23;20732;-83
2023/06/17 08:29:39;;;;;;;10.30;9.50;;;21.60;85.40;;;;;;5886788;23;20233;-86
2023/06/17 08:49:43;;;;;;;9.25;8.48;;;22.00;85.10;;;;;;5824617;24;20180;-85
2023/06/17 09:14:44;;;;;;;8.63;7.93;;;22.20;84.20;;;;;;5743494;24;20194;-82
2023/06/17 09:35:37;;;;;;;7.80;7.20;;;23.70;76.60;;;;;;5562275;25;20193;-83
2023/06/17 10:35:50;;;;;;;7.68;7.07;;;23.60;78.70;;;;;;5594541;24;20597;-83
2023/06/17 11:01:11;;;;;;;10.82;9.93;;;23.10;78.00;;;;;;5572479;24;20781;-82
2023/06/17 11:22:07;;;;;;;11.45;10.48;;;21.50;82.50;;;;;;5608813;24;20588;-82
2023/06/17 11:51:52;;;;;;;12.35;11.25;;;22.80;81.80;;;;;;5691290;24;20386;-82
2023/06/17 12:12:40;;;;;;;10.50;9.68;;;25.20;65.30;;;;;;5760373;24;20627;-82
2023/06/17 12:42:49;;;;;;;9.88;8.98;;;25.10;64.30;;;;;;5753692;24;20215;-82
2023/06/17 13:13:57;;;;;;;9.90;9.13;;;25.60;54.10;;;;;;6022871;23;20163;-82
2023/06/17 13:18:05;;;;;;;9.43;8.73;;;25.20;55.20;;;;;;5901863;23;20632;-84
2023/06/17 13:43:26;;;;;;;8.25;7.65;;;27.00;54.00;;;;;;5775883;24;20657;-83
2023/06/17 14:13:55;;;;;;;8.00;7.32;;;29.60;50.20;;;;;;5574303;24;20273;-81
2023/06/17 14:39:16;;;;;;;8.05;7.45;;;29.30;49.70;;;;;;5554707;24;20447;-82
2023/06/17 15:00:12;;;;;;;8.20;7.50;;;26.20;50.40;;;;;;5815988;24;20174;-84
2023/06/17 15:25:32;;;;;;;8.23;7.63;;;25.10;52.40;;;;;;5893330;23;20282;-81
2023/06/17 15:50:47;;;;;;;8.10;7.40;;;27.20;50.30;;;;;;5695734;24;20189;-83
2023/06/17 16:26:28;;;;;;;9.18;8.48;;;23.40;71.30;;;;;;5998832;23;20711;-82
2023/06/17 16:30:47;;;;;;;9.95;9.15;;;23.40;74.40;;;;;;5952265;23;20502;-84
2023/06/17 16:51:06;;;;;;;10.48;9.57;;;22.90;80.10;;;;;;5749788;24;21115;-81
2023/06/17 17:52:40;;;;;;;11.60;10.70;;;21.90;85.00;;;;;;4942212;28;20244;-81
2023/06/17 17:56:59;;;;;;;11.27;10.38;;;21.80;85.90;;;;;;4763689;29;20689;-82
2023/06/17 18:12:56;;;;;;;13.00;11.82;;;21.50;88.00;;;;;;4816695;29;20616;-85
2023/06/17 18:38:02;;;;;;;14.97;13.67;;;20.70;91.60;;;;;;4709839;29;20450;-87
2023/06/17 19:03:16;;;;;;;14.73;13.40;;;20.50;94.80;;;;;;4662435;29;21169;-82
2023/06/17 19:28:46;;;;;;;15.77;14.37;;;20.00;99.90;;;;;;4566077;30;21173;-84
2023/06/17 19:54:21;;;;;;;15.90;14.60;;;19.60;99.90;;;;;;4601617;30;20207;-81
2023/06/17 20:44:48;;;;;;;20.17;18.27;;;19.20;99.90;;;;;;4699655;29;20232;-82
2023/06/17 21:05:19;;;;;;;20.27;18.23;;;18.90;99.90;;;;;;4717201;29;20254;-86
2023/06/17 21:40:45;;;;;;;26.07;23.60;;;18.50;99.90;;;;;;4681104;29;20305;-84
2023/06/17 22:06:07;;;;;;;25.70;23.10;;;18.20;99.90;;;;;;4619399;29;20216;-82
2023/06/17 22:51:46;;;;;;;25.30;22.93;;;18.20;99.90;;;;;;4909937;28;20335;-80
2023/06/17 23:16:57;;;;;;;26.13;23.63;;;18.20;99.90;;;;;;4697919;29;20419;-83
